BTK6204 WIII-WAGI
Flight info
| Callsign | BTK6204 |
|---|---|
| Flight time | 1h 15m |
| Altitude | 37000 |
| Route | EGUKO W15 TAVIP |
| Aircraft | B738/M-SDE2E3FGHIRWXY/LB1 |
Departure
| Time | 2026-05-09 05:36 |
|---|---|
| Airport | Soekarno-Hatta International Airport (WIII) |
Arrival
| Time | 2026-05-09 06:51 |
|---|---|
| Airport | Iskandar Airport (WAGI) |
| Time | Latitude | Longitude | Altitude | Speed | Heading |
|---|---|---|---|---|---|
| 2026-05-09 04:58 | -6.12307 | 106.64688 | 37 ft | 0 kts | 249° |
| 2026-05-09 05:27 | -6.12302 | 106.64701 | 37 ft | 4 kts | 248° |
| 2026-05-09 05:27 | -6.12292 | 106.64727 | 37 ft | 4 kts | 249° |
| 2026-05-09 05:28 | -6.12283 | 106.64752 | 36 ft | 4 kts | 258° |
| 2026-05-09 05:28 | -6.12283 | 106.64776 | 36 ft | 4 kts | 308° |
| 2026-05-09 05:28 | -6.12288 | 106.64781 | 35 ft | 1 kts | 339° |
| 2026-05-09 05:31 | -6.12270 | 106.64774 | 34 ft | 5 kts | 339° |
| 2026-05-09 05:31 | -6.12222 | 106.64756 | 37 ft | 9 kts | 339° |
| 2026-05-09 05:31 | -6.12151 | 106.64730 | 37 ft | 12 kts | 339° |
| 2026-05-09 05:32 | -6.12073 | 106.64697 | 37 ft | 10 kts | 342° |
| 2026-05-09 05:32 | -6.12012 | 106.64669 | 38 ft | 8 kts | 318° |
| 2026-05-09 05:32 | -6.12000 | 106.64625 | 38 ft | 7 kts | 260° |
| 2026-05-09 05:32 | -6.12018 | 106.64577 | 36 ft | 8 kts | 248° |
| 2026-05-09 05:33 | -6.12045 | 106.64509 | 36 ft | 13 kts | 248° |
| 2026-05-09 05:33 | -6.12089 | 106.64400 | 36 ft | 20 kts | 248° |
| 2026-05-09 05:33 | -6.12147 | 106.64253 | 38 ft | 25 kts | 248° |
| 2026-05-09 05:33 | -6.12209 | 106.64099 | 37 ft | 24 kts | 248° |
| 2026-05-09 05:34 | -6.12257 | 106.63976 | 38 ft | 13 kts | 257° |
| 2026-05-09 05:34 | -6.12235 | 106.63903 | 38 ft | 10 kts | 317° |
| 2026-05-09 05:34 | -6.12183 | 106.63889 | 40 ft | 6 kts | 12° |
| 2026-05-09 05:34 | -6.12143 | 106.63903 | 41 ft | 6 kts | 19° |
| 2026-05-09 05:35 | -6.12095 | 106.63920 | 40 ft | 7 kts | 21° |
| 2026-05-09 05:35 | -6.12070 | 106.63960 | 39 ft | 7 kts | 76° |
| 2026-05-09 05:35 | -6.12051 | 106.64007 | 39 ft | 8 kts | 68° |
| 2026-05-09 05:35 | -6.11998 | 106.64141 | 39 ft | 48 kts | 68° |
| 2026-05-09 05:36 | -6.11782 | 106.64681 | 41 ft | 118 kts | 68° |
| 2026-05-09 05:36 | -6.11397 | 106.65629 | 137 ft | 165 kts | 68° |
| 2026-05-09 05:36 | -6.11019 | 106.66754 | 896 ft | 165 kts | 69° |
| 2026-05-09 05:36 | -6.10491 | 106.67747 | 1726 ft | 166 kts | 46° |
| 2026-05-09 05:37 | -6.09596 | 106.68629 | 2135 ft | 197 kts | 45° |
| 2026-05-09 05:37 | -6.08560 | 106.69685 | 2387 ft | 226 kts | 46° |
| 2026-05-09 05:37 | -6.07439 | 106.70848 | 2867 ft | 239 kts | 47° |
| 2026-05-09 05:37 | -6.06249 | 106.72093 | 3348 ft | 256 kts | 47° |
| 2026-05-09 05:38 | -6.05001 | 106.73407 | 4090 ft | 263 kts | 47° |
| 2026-05-09 05:38 | -6.03726 | 106.74754 | 4953 ft | 266 kts | 47° |
| 2026-05-09 05:38 | -6.02435 | 106.76125 | 5767 ft | 271 kts | 47° |
| 2026-05-09 05:38 | -6.01136 | 106.77507 | 6617 ft | 273 kts | 47° |
| 2026-05-09 05:39 | -5.99836 | 106.78892 | 7393 ft | 278 kts | 47° |
| 2026-05-09 05:39 | -5.98497 | 106.80318 | 8150 ft | 282 kts | 47° |
| 2026-05-09 05:39 | -5.97141 | 106.81763 | 8918 ft | 286 kts | 47° |
| 2026-05-09 05:39 | -5.95825 | 106.83276 | 9670 ft | 290 kts | 56° |
| 2026-05-09 05:40 | -5.94765 | 106.85013 | 10362 ft | 295 kts | 62° |
| 2026-05-09 05:40 | -5.93758 | 106.86892 | 10571 ft | 318 kts | 63° |
| 2026-05-09 05:40 | -5.92692 | 106.88931 | 10731 ft | 341 kts | 63° |
| 2026-05-09 05:40 | -5.91546 | 106.91100 | 11026 ft | 356 kts | 62° |
| 2026-05-09 05:41 | -5.90360 | 106.93311 | 11563 ft | 361 kts | 62° |
| 2026-05-09 05:41 | -5.89155 | 106.95531 | 12222 ft | 364 kts | 62° |
| 2026-05-09 05:41 | -5.87945 | 106.97744 | 12823 ft | 367 kts | 62° |
| 2026-05-09 05:41 | -5.86706 | 107.00002 | 13437 ft | 371 kts | 62° |
| 2026-05-09 05:42 | -5.85449 | 107.02288 | 13982 ft | 374 kts | 62° |
| 2026-05-09 05:42 | -5.84184 | 107.04591 | 14486 ft | 378 kts | 62° |
| 2026-05-09 05:42 | -5.82903 | 107.06921 | 15000 ft | 382 kts | 62° |
| 2026-05-09 05:42 | -5.81613 | 107.09266 | 15499 ft | 385 kts | 62° |
| 2026-05-09 05:43 | -5.80325 | 107.11605 | 15984 ft | 389 kts | 62° |
| 2026-05-09 05:43 | -5.79008 | 107.13995 | 16472 ft | 392 kts | 62° |
| 2026-05-09 05:43 | -5.77680 | 107.16406 | 16953 ft | 396 kts | 62° |
| 2026-05-09 05:43 | -5.76339 | 107.18839 | 17425 ft | 399 kts | 62° |
| 2026-05-09 05:44 | -5.74988 | 107.21290 | 17889 ft | 403 kts | 62° |
| 2026-05-09 05:44 | -5.73625 | 107.23764 | 18314 ft | 406 kts | 62° |
| 2026-05-09 05:44 | -5.72250 | 107.26258 | 18721 ft | 408 kts | 62° |
| 2026-05-09 05:44 | -5.70872 | 107.28760 | 19134 ft | 411 kts | 62° |
| 2026-05-09 05:45 | -5.69488 | 107.31278 | 19542 ft | 413 kts | 62° |
| 2026-05-09 05:45 | -5.68114 | 107.33776 | 19928 ft | 415 kts | 62° |
| 2026-05-09 05:45 | -5.66711 | 107.36327 | 20319 ft | 418 kts | 62° |
| 2026-05-09 05:45 | -5.65299 | 107.38894 | 20712 ft | 420 kts | 62° |
| 2026-05-09 05:46 | -5.63881 | 107.41471 | 21087 ft | 422 kts | 62° |
| 2026-05-09 05:46 | -5.62458 | 107.44057 | 21462 ft | 425 kts | 62° |
| 2026-05-09 05:46 | -5.61020 | 107.46670 | 21820 ft | 427 kts | 62° |
| 2026-05-09 05:46 | -5.59579 | 107.49290 | 22176 ft | 430 kts | 62° |
| 2026-05-09 05:47 | -5.58128 | 107.51926 | 22527 ft | 432 kts | 62° |
| 2026-05-09 05:47 | -5.56688 | 107.54541 | 22875 ft | 434 kts | 62° |
| 2026-05-09 05:47 | -5.55223 | 107.57201 | 23221 ft | 436 kts | 62° |
| 2026-05-09 05:47 | -5.53748 | 107.59880 | 23522 ft | 438 kts | 62° |
| 2026-05-09 05:48 | -5.52264 | 107.62575 | 23805 ft | 440 kts | 62° |
| 2026-05-09 05:48 | -5.50776 | 107.65276 | 24100 ft | 441 kts | 62° |
| 2026-05-09 05:48 | -5.49291 | 107.67973 | 24394 ft | 443 kts | 62° |
| 2026-05-09 05:48 | -5.47813 | 107.70655 | 24666 ft | 444 kts | 62° |
| 2026-05-09 05:49 | -5.46313 | 107.73379 | 24918 ft | 446 kts | 62° |
| 2026-05-09 05:49 | -5.44810 | 107.76106 | 25176 ft | 448 kts | 62° |
| 2026-05-09 05:49 | -5.43297 | 107.78846 | 25441 ft | 449 kts | 61° |
| 2026-05-09 05:49 | -5.41647 | 107.81525 | 25697 ft | 451 kts | 57° |
| 2026-05-09 05:50 | -5.39851 | 107.84116 | 25943 ft | 453 kts | 55° |
| 2026-05-09 05:50 | -5.37995 | 107.86676 | 26189 ft | 455 kts | 55° |
| 2026-05-09 05:50 | -5.36119 | 107.89246 | 26433 ft | 456 kts | 55° |
| 2026-05-09 05:50 | -5.34255 | 107.91824 | 26667 ft | 457 kts | 55° |
| 2026-05-09 05:51 | -5.32393 | 107.94429 | 26892 ft | 459 kts | 56° |
| 2026-05-09 05:51 | -5.30562 | 107.97016 | 27118 ft | 460 kts | 56° |
| 2026-05-09 05:51 | -5.28716 | 107.99641 | 27343 ft | 461 kts | 56° |
| 2026-05-09 05:51 | -5.26862 | 108.02285 | 27565 ft | 463 kts | 56° |
| 2026-05-09 05:52 | -5.25005 | 108.04936 | 27766 ft | 464 kts | 56° |
| 2026-05-09 05:52 | -5.23141 | 108.07597 | 27981 ft | 465 kts | 56° |
| 2026-05-09 05:52 | -5.21277 | 108.10256 | 28177 ft | 467 kts | 56° |
| 2026-05-09 05:52 | -5.19402 | 108.12930 | 28360 ft | 468 kts | 56° |
| 2026-05-09 05:53 | -5.17521 | 108.15611 | 28543 ft | 470 kts | 56° |
| 2026-05-09 05:53 | -5.15638 | 108.18294 | 28721 ft | 471 kts | 56° |
| 2026-05-09 05:53 | -5.13768 | 108.20957 | 28893 ft | 473 kts | 56° |
| 2026-05-09 05:53 | -5.11869 | 108.23663 | 29063 ft | 474 kts | 56° |
| 2026-05-09 05:54 | -5.09963 | 108.26377 | 29225 ft | 475 kts | 56° |
| 2026-05-09 05:54 | -5.08052 | 108.29100 | 29388 ft | 477 kts | 56° |
| 2026-05-09 05:54 | -5.06160 | 108.31794 | 29600 ft | 477 kts | 56° |
| 2026-05-09 05:54 | -5.04230 | 108.34543 | 29869 ft | 476 kts | 56° |
| 2026-05-09 05:55 | -5.02351 | 108.37218 | 30102 ft | 475 kts | 56° |
| 2026-05-09 05:55 | -5.00448 | 108.39927 | 30315 ft | 474 kts | 56° |
| 2026-05-09 05:55 | -4.98548 | 108.42632 | 30532 ft | 473 kts | 56° |
| 2026-05-09 05:55 | -4.96651 | 108.45337 | 30783 ft | 472 kts | 56° |
| 2026-05-09 05:56 | -4.94761 | 108.48033 | 31052 ft | 470 kts | 56° |
| 2026-05-09 05:56 | -4.92877 | 108.50723 | 31304 ft | 469 kts | 55° |
| 2026-05-09 05:56 | -4.91027 | 108.53363 | 31545 ft | 468 kts | 55° |
| 2026-05-09 05:56 | -4.89152 | 108.56039 | 31794 ft | 468 kts | 55° |
| 2026-05-09 05:57 | -4.87282 | 108.58707 | 32021 ft | 467 kts | 55° |
| 2026-05-09 05:57 | -4.85412 | 108.61374 | 32288 ft | 466 kts | 55° |
| 2026-05-09 05:57 | -4.83542 | 108.64041 | 32552 ft | 465 kts | 55° |
| 2026-05-09 05:57 | -4.81681 | 108.66696 | 32808 ft | 464 kts | 55° |
| 2026-05-09 05:58 | -4.79823 | 108.69345 | 33066 ft | 464 kts | 55° |
| 2026-05-09 05:58 | -4.77987 | 108.71964 | 33306 ft | 463 kts | 55° |
| 2026-05-09 05:58 | -4.76132 | 108.74609 | 33573 ft | 462 kts | 55° |
| 2026-05-09 05:58 | -4.74277 | 108.77254 | 33845 ft | 461 kts | 55° |
| 2026-05-09 05:59 | -4.72434 | 108.79881 | 34077 ft | 461 kts | 55° |
| 2026-05-09 05:59 | -4.70661 | 108.82558 | 34305 ft | 459 kts | 61° |
| 2026-05-09 05:59 | -4.69190 | 108.85396 | 34557 ft | 458 kts | 64° |
| 2026-05-09 05:59 | -4.67851 | 108.88249 | 34798 ft | 457 kts | 65° |
| 2026-05-09 06:00 | -4.66534 | 108.91153 | 35045 ft | 456 kts | 65° |
| 2026-05-09 06:00 | -4.65226 | 108.94041 | 35295 ft | 454 kts | 65° |
| 2026-05-09 06:00 | -4.63903 | 108.96924 | 35532 ft | 453 kts | 65° |
| 2026-05-09 06:00 | -4.62571 | 108.99783 | 35774 ft | 452 kts | 64° |
| 2026-05-09 06:01 | -4.61228 | 109.02635 | 35995 ft | 451 kts | 64° |
| 2026-05-09 06:01 | -4.59896 | 109.05441 | 36212 ft | 450 kts | 64° |
| 2026-05-09 06:01 | -4.58544 | 109.08279 | 36435 ft | 450 kts | 64° |
| 2026-05-09 06:01 | -4.57193 | 109.11110 | 36647 ft | 449 kts | 64° |
| 2026-05-09 06:02 | -4.55844 | 109.13936 | 36822 ft | 449 kts | 64° |
| 2026-05-09 06:02 | -4.54491 | 109.16770 | 36831 ft | 452 kts | 64° |
| 2026-05-09 06:02 | -4.51777 | 109.22456 | 36844 ft | 450 kts | 64° |
| 2026-05-09 06:03 | -4.49083 | 109.28104 | 36848 ft | 447 kts | 64° |
| 2026-05-09 06:03 | -4.46421 | 109.33683 | 36844 ft | 445 kts | 64° |
| 2026-05-09 06:04 | -4.43752 | 109.39277 | 36839 ft | 443 kts | 64° |
| 2026-05-09 06:04 | -4.41088 | 109.44858 | 36856 ft | 443 kts | 64° |
| 2026-05-09 06:05 | -4.38421 | 109.50443 | 36844 ft | 444 kts | 64° |
| 2026-05-09 06:05 | -4.35769 | 109.55996 | 36850 ft | 445 kts | 64° |
| 2026-05-09 06:06 | -4.33090 | 109.61605 | 36848 ft | 447 kts | 64° |
| 2026-05-09 06:06 | -4.31735 | 109.64441 | 36494 ft | 455 kts | 64° |
| 2026-05-09 06:06 | -4.30363 | 109.67311 | 35990 ft | 455 kts | 64° |
| 2026-05-09 06:07 | -4.28995 | 109.70176 | 35376 ft | 455 kts | 64° |
| 2026-05-09 06:07 | -4.27628 | 109.73036 | 34734 ft | 456 kts | 64° |
| 2026-05-09 06:07 | -4.26723 | 109.74929 | 34283 ft | 457 kts | 64° |
| 2026-05-09 06:07 | -4.24895 | 109.78752 | 33502 ft | 455 kts | 64° |
| 2026-05-09 06:08 | -4.23534 | 109.81598 | 32965 ft | 452 kts | 64° |
| 2026-05-09 06:08 | -4.22180 | 109.84431 | 32482 ft | 448 kts | 64° |
| 2026-05-09 06:08 | -4.21288 | 109.86297 | 32163 ft | 445 kts | 64° |
| 2026-05-09 06:08 | -4.19953 | 109.89090 | 31691 ft | 441 kts | 64° |
| 2026-05-09 06:09 | -4.18627 | 109.91861 | 31228 ft | 438 kts | 64° |
| 2026-05-09 06:09 | -4.17317 | 109.94599 | 30773 ft | 434 kts | 64° |
| 2026-05-09 06:09 | -4.16029 | 109.97292 | 30317 ft | 431 kts | 64° |
| 2026-05-09 06:09 | -4.14734 | 109.99999 | 29847 ft | 428 kts | 64° |
| 2026-05-09 06:10 | -4.13450 | 110.02683 | 29312 ft | 425 kts | 64° |
| 2026-05-09 06:10 | -4.12181 | 110.05334 | 28810 ft | 421 kts | 64° |
| 2026-05-09 06:10 | -4.10919 | 110.07971 | 28335 ft | 417 kts | 64° |
| 2026-05-09 06:10 | -4.09686 | 110.10548 | 27879 ft | 413 kts | 64° |
| 2026-05-09 06:11 | -4.08447 | 110.13136 | 27414 ft | 409 kts | 64° |
| 2026-05-09 06:11 | -4.07220 | 110.15699 | 26962 ft | 406 kts | 64° |
| 2026-05-09 06:11 | -4.05998 | 110.18251 | 26517 ft | 403 kts | 65° |
| 2026-05-09 06:11 | -4.04803 | 110.20748 | 26063 ft | 400 kts | 65° |
| 2026-05-09 06:12 | -4.03601 | 110.23259 | 25625 ft | 398 kts | 65° |
| 2026-05-09 06:12 | -4.02404 | 110.25759 | 25163 ft | 396 kts | 65° |
| 2026-05-09 06:12 | -4.01216 | 110.28240 | 24709 ft | 395 kts | 65° |
| 2026-05-09 06:12 | -4.00031 | 110.30715 | 24262 ft | 393 kts | 65° |
| 2026-05-09 06:13 | -3.98858 | 110.33165 | 23819 ft | 392 kts | 66° |
| 2026-05-09 06:13 | -3.97680 | 110.35623 | 23369 ft | 391 kts | 66° |
| 2026-05-09 06:13 | -3.96497 | 110.38081 | 22865 ft | 390 kts | 64° |
| 2026-05-09 06:13 | -3.95101 | 110.40399 | 22564 ft | 384 kts | 57° |
| 2026-05-09 06:14 | -3.93582 | 110.42551 | 22277 ft | 380 kts | 55° |
| 2026-05-09 06:14 | -3.92015 | 110.44675 | 22001 ft | 377 kts | 55° |
| 2026-05-09 06:14 | -3.90444 | 110.46792 | 21739 ft | 381 kts | 55° |
| 2026-05-09 06:14 | -3.88855 | 110.48950 | 21464 ft | 385 kts | 55° |
| 2026-05-09 06:15 | -3.87274 | 110.51116 | 21184 ft | 383 kts | 56° |
| 2026-05-09 06:15 | -3.85733 | 110.53244 | 20911 ft | 380 kts | 56° |
| 2026-05-09 06:15 | -3.84173 | 110.55412 | 20635 ft | 377 kts | 56° |
| 2026-05-09 06:15 | -3.82665 | 110.57514 | 20364 ft | 375 kts | 56° |
| 2026-05-09 06:16 | -3.81141 | 110.59642 | 20102 ft | 373 kts | 56° |
| 2026-05-09 06:16 | -3.79628 | 110.61757 | 19829 ft | 372 kts | 56° |
| 2026-05-09 06:16 | -3.78143 | 110.63835 | 19571 ft | 371 kts | 56° |
| 2026-05-09 06:16 | -3.76641 | 110.65937 | 19304 ft | 370 kts | 56° |
| 2026-05-09 06:17 | -3.75139 | 110.68037 | 19031 ft | 369 kts | 56° |
| 2026-05-09 06:17 | -3.73642 | 110.70132 | 18762 ft | 369 kts | 56° |
| 2026-05-09 06:17 | -3.72167 | 110.72195 | 18493 ft | 368 kts | 56° |
| 2026-05-09 06:17 | -3.70675 | 110.74281 | 18232 ft | 367 kts | 56° |
| 2026-05-09 06:18 | -3.69186 | 110.76363 | 17938 ft | 367 kts | 56° |
| 2026-05-09 06:18 | -3.67704 | 110.78435 | 17655 ft | 365 kts | 56° |
| 2026-05-09 06:18 | -3.66228 | 110.80498 | 17385 ft | 362 kts | 56° |
| 2026-05-09 06:18 | -3.64759 | 110.82551 | 17113 ft | 360 kts | 56° |
| 2026-05-09 06:19 | -3.63323 | 110.84559 | 16857 ft | 358 kts | 56° |
| 2026-05-09 06:19 | -3.61870 | 110.86590 | 16598 ft | 356 kts | 56° |
| 2026-05-09 06:19 | -3.60427 | 110.88607 | 16344 ft | 354 kts | 56° |
| 2026-05-09 06:19 | -3.59008 | 110.90590 | 16091 ft | 352 kts | 56° |
| 2026-05-09 06:20 | -3.57584 | 110.92581 | 15836 ft | 350 kts | 56° |
| 2026-05-09 06:20 | -3.56162 | 110.94568 | 15587 ft | 349 kts | 56° |
| 2026-05-09 06:20 | -3.54746 | 110.96547 | 15338 ft | 347 kts | 56° |
| 2026-05-09 06:20 | -3.53359 | 110.98484 | 15096 ft | 346 kts | 56° |
| 2026-05-09 06:21 | -3.51958 | 111.00443 | 14843 ft | 345 kts | 56° |
| 2026-05-09 06:21 | -3.50558 | 111.02398 | 14596 ft | 344 kts | 55° |
| 2026-05-09 06:21 | -3.49167 | 111.04342 | 14346 ft | 343 kts | 55° |
| 2026-05-09 06:21 | -3.47781 | 111.06279 | 14106 ft | 341 kts | 55° |
| 2026-05-09 06:22 | -3.46388 | 111.08224 | 13841 ft | 340 kts | 55° |
| 2026-05-09 06:22 | -3.45030 | 111.10122 | 13594 ft | 339 kts | 55° |
| 2026-05-09 06:22 | -3.43654 | 111.12044 | 13328 ft | 337 kts | 55° |
| 2026-05-09 06:22 | -3.42288 | 111.13950 | 13072 ft | 335 kts | 55° |
| 2026-05-09 06:23 | -3.40934 | 111.15841 | 12826 ft | 333 kts | 55° |
| 2026-05-09 06:23 | -3.39588 | 111.17721 | 12583 ft | 332 kts | 55° |
| 2026-05-09 06:23 | -3.38244 | 111.19599 | 12346 ft | 330 kts | 55° |
| 2026-05-09 06:23 | -3.36932 | 111.21430 | 12206 ft | 325 kts | 55° |
| 2026-05-09 06:24 | -3.35613 | 111.23272 | 11985 ft | 324 kts | 55° |
| 2026-05-09 06:24 | -3.34299 | 111.25107 | 11767 ft | 324 kts | 54° |
| 2026-05-09 06:24 | -3.32984 | 111.26942 | 11535 ft | 324 kts | 54° |
| 2026-05-09 06:24 | -3.31665 | 111.28784 | 11307 ft | 324 kts | 54° |
| 2026-05-09 06:25 | -3.30349 | 111.30621 | 11078 ft | 325 kts | 54° |
| 2026-05-09 06:25 | -3.29050 | 111.32435 | 10847 ft | 325 kts | 54° |
| 2026-05-09 06:25 | -3.27741 | 111.34263 | 10613 ft | 320 kts | 54° |
| 2026-05-09 06:25 | -3.26449 | 111.36065 | 10356 ft | 315 kts | 54° |
| 2026-05-09 06:26 | -3.25182 | 111.37834 | 10138 ft | 309 kts | 54° |
| 2026-05-09 06:26 | -3.23937 | 111.39572 | 9931 ft | 303 kts | 54° |
| 2026-05-09 06:26 | -3.22749 | 111.41230 | 9911 ft | 290 kts | 54° |
| 2026-05-09 06:26 | -3.21575 | 111.42868 | 9560 ft | 291 kts | 53° |
| 2026-05-09 06:27 | -3.20402 | 111.44505 | 9291 ft | 288 kts | 53° |
| 2026-05-09 06:27 | -3.19238 | 111.46130 | 9065 ft | 284 kts | 53° |
| 2026-05-09 06:27 | -3.18097 | 111.47722 | 8847 ft | 279 kts | 53° |
| 2026-05-09 06:27 | -3.16986 | 111.49273 | 8660 ft | 275 kts | 53° |
| 2026-05-09 06:28 | -3.15868 | 111.50833 | 8452 ft | 275 kts | 53° |
| 2026-05-09 06:28 | -3.14757 | 111.52383 | 8254 ft | 274 kts | 53° |
| 2026-05-09 06:28 | -3.13644 | 111.53936 | 8057 ft | 273 kts | 53° |
| 2026-05-09 06:28 | -3.12537 | 111.55480 | 7862 ft | 273 kts | 53° |
| 2026-05-09 06:29 | -3.11428 | 111.57027 | 7662 ft | 273 kts | 53° |
| 2026-05-09 06:29 | -3.10322 | 111.58570 | 7464 ft | 272 kts | 53° |
| 2026-05-09 06:29 | -3.09213 | 111.60072 | 7275 ft | 272 kts | 51° |
| 2026-05-09 06:29 | -3.08033 | 111.61560 | 7080 ft | 272 kts | 50° |
| 2026-05-09 06:30 | -3.06846 | 111.63034 | 6879 ft | 272 kts | 50° |
| 2026-05-09 06:30 | -3.05658 | 111.64510 | 6682 ft | 271 kts | 50° |
| 2026-05-09 06:30 | -3.04471 | 111.65990 | 6485 ft | 271 kts | 51° |
| 2026-05-09 06:30 | -3.03295 | 111.67462 | 6294 ft | 271 kts | 51° |
| 2026-05-09 06:31 | -3.02132 | 111.68918 | 6085 ft | 270 kts | 51° |
| 2026-05-09 06:31 | -3.00959 | 111.70390 | 5873 ft | 269 kts | 51° |
| 2026-05-09 06:31 | -2.99794 | 111.71853 | 5680 ft | 268 kts | 51° |
| 2026-05-09 06:31 | -2.98631 | 111.73314 | 5474 ft | 267 kts | 51° |
| 2026-05-09 06:32 | -2.97490 | 111.74747 | 5291 ft | 265 kts | 51° |
| 2026-05-09 06:32 | -2.96342 | 111.76189 | 5099 ft | 264 kts | 51° |
| 2026-05-09 06:32 | -2.95191 | 111.77623 | 4897 ft | 263 kts | 49° |
| 2026-05-09 06:33 | -2.92765 | 111.80376 | 4456 ft | 263 kts | 48° |
| 2026-05-09 06:33 | -2.91560 | 111.81731 | 4237 ft | 263 kts | 48° |
| 2026-05-09 06:33 | -2.90345 | 111.83103 | 4017 ft | 263 kts | 47° |
| 2026-05-09 06:34 | -2.87122 | 111.84297 | 3560 ft | 255 kts | 346° |
| 2026-05-09 06:34 | -2.85553 | 111.83511 | 3362 ft | 252 kts | 319° |
| 2026-05-09 06:34 | -2.84328 | 111.82308 | 3169 ft | 248 kts | 315° |
| 2026-05-09 06:34 | -2.83128 | 111.81097 | 3070 ft | 238 kts | 314° |
| 2026-05-09 06:35 | -2.82017 | 111.79918 | 2950 ft | 228 kts | 313° |
| 2026-05-09 06:35 | -2.80977 | 111.78777 | 2793 ft | 220 kts | 312° |
| 2026-05-09 06:35 | -2.79960 | 111.77657 | 2555 ft | 214 kts | 312° |
| 2026-05-09 06:35 | -2.78986 | 111.76590 | 2294 ft | 203 kts | 312° |
| 2026-05-09 06:36 | -2.78070 | 111.75588 | 2046 ft | 186 kts | 312° |
| 2026-05-09 06:36 | -2.77232 | 111.74669 | 1814 ft | 172 kts | 312° |
| 2026-05-09 06:36 | -2.76468 | 111.73833 | 1618 ft | 157 kts | 312° |
| 2026-05-09 06:36 | -2.75741 | 111.73037 | 1405 ft | 156 kts | 312° |
| 2026-05-09 06:37 | -2.75007 | 111.72233 | 1209 ft | 156 kts | 312° |
| 2026-05-09 06:37 | -2.74271 | 111.71427 | 1007 ft | 157 kts | 312° |
| 2026-05-09 06:37 | -2.73540 | 111.70626 | 809 ft | 155 kts | 312° |
| 2026-05-09 06:37 | -2.73355 | 111.70422 | 768 ft | 156 kts | 312° |
| 2026-05-09 06:38 | -2.73090 | 111.70133 | 701 ft | 156 kts | 312° |
| 2026-05-09 06:38 | -2.72356 | 111.69329 | 505 ft | 156 kts | 312° |
| 2026-05-09 06:38 | -2.71627 | 111.68523 | 266 ft | 156 kts | 313° |
| 2026-05-09 06:38 | -2.70905 | 111.67731 | 108 ft | 146 kts | 314° |
| 2026-05-09 06:39 | -2.70262 | 111.67055 | 107 ft | 133 kts | 314° |
| 2026-05-09 06:39 | -2.69605 | 111.66341 | 463 ft | 143 kts | 311° |
| 2026-05-09 06:39 | -2.68935 | 111.65594 | 855 ft | 156 kts | 311° |
| 2026-05-09 06:39 | -2.68153 | 111.64715 | 1082 ft | 185 kts | 311° |
| 2026-05-09 06:40 | -2.67221 | 111.63666 | 1357 ft | 215 kts | 311° |
| 2026-05-09 06:40 | -2.66174 | 111.62486 | 1540 ft | 239 kts | 311° |
| 2026-05-09 06:40 | -2.65025 | 111.61184 | 1766 ft | 257 kts | 309° |
| 2026-05-09 06:40 | -2.64213 | 111.59582 | 2318 ft | 264 kts | 281° |
| 2026-05-09 06:41 | -2.64249 | 111.57774 | 2829 ft | 264 kts | 255° |
| 2026-05-09 06:41 | -2.65093 | 111.56156 | 2935 ft | 265 kts | 230° |
| 2026-05-09 06:41 | -2.66372 | 111.54816 | 2949 ft | 268 kts | 225° |
| 2026-05-09 06:41 | -2.67736 | 111.53545 | 2946 ft | 267 kts | 216° |
| 2026-05-09 06:42 | -2.69443 | 111.52834 | 2953 ft | 268 kts | 188° |
| 2026-05-09 06:42 | -2.71302 | 111.53013 | 2965 ft | 273 kts | 159° |
| 2026-05-09 06:42 | -2.72884 | 111.54021 | 2938 ft | 273 kts | 135° |
| 2026-05-09 06:42 | -2.74174 | 111.55411 | 2946 ft | 271 kts | 131° |
| 2026-05-09 06:43 | -2.75408 | 111.56836 | 2943 ft | 270 kts | 130° |
| 2026-05-09 06:43 | -2.76628 | 111.58259 | 2937 ft | 268 kts | 130° |
| 2026-05-09 06:43 | -2.77839 | 111.59673 | 2959 ft | 268 kts | 130° |
| 2026-05-09 06:43 | -2.79066 | 111.61109 | 2933 ft | 273 kts | 130° |
| 2026-05-09 06:44 | -2.80278 | 111.62531 | 2951 ft | 272 kts | 130° |
| 2026-05-09 06:44 | -2.81507 | 111.63970 | 2949 ft | 274 kts | 130° |
| 2026-05-09 06:44 | -2.82754 | 111.65424 | 2956 ft | 275 kts | 130° |
| 2026-05-09 06:44 | -2.84007 | 111.66887 | 2970 ft | 276 kts | 130° |
| 2026-05-09 06:45 | -2.85252 | 111.68341 | 2954 ft | 273 kts | 130° |
| 2026-05-09 06:45 | -2.86467 | 111.69757 | 2849 ft | 264 kts | 130° |
| 2026-05-09 06:45 | -2.87603 | 111.71181 | 2649 ft | 258 kts | 117° |
| 2026-05-09 06:45 | -2.87939 | 111.72869 | 2472 ft | 250 kts | 80° |
| 2026-05-09 06:46 | -2.87232 | 111.74387 | 2449 ft | 236 kts | 53° |
| 2026-05-09 06:46 | -2.86359 | 111.75722 | 2470 ft | 222 kts | 58° |
| 2026-05-09 06:46 | -2.85610 | 111.77012 | 2431 ft | 207 kts | 59° |
| 2026-05-09 06:46 | -2.84888 | 111.78211 | 2350 ft | 196 kts | 56° |
| 2026-05-09 06:47 | -2.83905 | 111.79104 | 2175 ft | 190 kts | 25° |
| 2026-05-09 06:47 | -2.82655 | 111.79368 | 2016 ft | 181 kts | 353° |
| 2026-05-09 06:47 | -2.81505 | 111.78987 | 1876 ft | 170 kts | 328° |
| 2026-05-09 06:47 | -2.80642 | 111.78247 | 1756 ft | 158 kts | 315° |
| 2026-05-09 06:48 | -2.79868 | 111.77503 | 1782 ft | 155 kts | 315° |
| 2026-05-09 06:48 | -2.79123 | 111.76731 | 1754 ft | 156 kts | 313° |
| 2026-05-09 06:48 | -2.78384 | 111.75931 | 1749 ft | 157 kts | 312° |
| 2026-05-09 06:48 | -2.77647 | 111.75125 | 1744 ft | 157 kts | 312° |
| 2026-05-09 06:49 | -2.76910 | 111.74318 | 1713 ft | 159 kts | 312° |
| 2026-05-09 06:49 | -2.76160 | 111.73495 | 1526 ft | 160 kts | 312° |
| 2026-05-09 06:49 | -2.75411 | 111.72675 | 1320 ft | 158 kts | 312° |
| 2026-05-09 06:49 | -2.74676 | 111.71871 | 1126 ft | 156 kts | 312° |
| 2026-05-09 06:50 | -2.73944 | 111.71067 | 917 ft | 155 kts | 312° |
| 2026-05-09 06:50 | -2.73224 | 111.70266 | 742 ft | 155 kts | 313° |
| 2026-05-09 06:50 | -2.72489 | 111.69463 | 532 ft | 158 kts | 313° |
| 2026-05-09 06:50 | -2.71750 | 111.68659 | 296 ft | 156 kts | 313° |
| 2026-05-09 06:51 | -2.71023 | 111.67866 | 110 ft | 151 kts | 312° |
| 2026-05-09 06:51 | -2.70437 | 111.67226 | 88 ft | 94 kts | 313° |
| 2026-05-09 06:51 | -2.70159 | 111.66926 | 88 ft | 18 kts | 314° |
| 2026-05-09 06:51 | -2.70147 | 111.66913 | 88 ft | 2 kts | 311° |
| 2026-05-09 06:52 | -2.70140 | 111.66901 | 86 ft | 2 kts | 288° |
| 2026-05-09 06:52 | -2.70142 | 111.66882 | 89 ft | 3 kts | 251° |
| 2026-05-09 06:52 | -2.70154 | 111.66864 | 89 ft | 1 kts | 223° |
| 2026-05-09 06:52 | -2.70173 | 111.66846 | 87 ft | 5 kts | 223° |
| 2026-05-09 06:53 | -2.70192 | 111.66829 | 88 ft | 0 kts | 223° |
| 2026-05-09 06:53 | -2.70195 | 111.66828 | 85 ft | 1 kts | 199° |
| 2026-05-09 06:53 | -2.70218 | 111.66833 | 88 ft | 4 kts | 154° |
| 2026-05-09 06:53 | -2.70232 | 111.66846 | 85 ft | 4 kts | 132° |
| 2026-05-09 06:54 | -2.70256 | 111.66872 | 85 ft | 6 kts | 132° |
| 2026-05-09 06:54 | -2.70289 | 111.66909 | 85 ft | 8 kts | 132° |
| 2026-05-09 06:54 | -2.70331 | 111.66955 | 86 ft | 10 kts | 132° |
| 2026-05-09 06:54 | -2.70365 | 111.66987 | 87 ft | 4 kts | 158° |
| 2026-05-09 06:55 | -2.70389 | 111.66981 | 86 ft | 0 kts | 214° |
| 2026-05-09 06:55 | -2.70393 | 111.66969 | 87 ft | 2 kts | 259° |
| 2026-05-09 06:55 | -2.70388 | 111.66955 | 87 ft | 0 kts | 302° |
| 2026-05-09 06:55 | -2.70385 | 111.66951 | 87 ft | 0 kts | 303° |
| 2026-05-09 06:56 | -2.70386 | 111.66950 | 87 ft | 0 kts | 312° |